Time;durP1;ratioP1;P1;durP2;ratioP2;P2;SDS_P1;SDS_P2;PMS_P1;PMS_P2;Temp;Humidity;BMP_temperature;BMP_pressure;BME280_temperature;BME280_humidity;BME280_pressure;Samples;Min_cycle;Max_cycle;Signal;HPM_P1;HPM_P2
2024/02/20 00:01:52;;;;;;;;;;;;;;;;;;5040743;28;19935;-73
2024/02/20 00:04:20;;;;;;;;;;;;;;;;;;5049235;28;19975;-73
2024/02/20 00:06:47;;;;;;;;;;;;;;;;;;5040331;28;20389;-73
2024/02/20 00:09:14;;;;;;;;;;;;;;;;;;5044991;28;19928;-74
2024/02/20 00:11:43;;;;;;;;;;;;;;;;;;5049529;28;20379;-74
2024/02/20 00:14:10;;;;;;;;;;;;;;;;;;5045620;28;19928;-74
2024/02/20 00:16:37;;;;;;;;;;;;;;;;;;5049343;28;20023;-74
2024/02/20 00:19:04;;;;;;;;;;;;;;;;;;5049414;28;19929;-74
2024/02/20 00:21:31;;;;;;;;;;;;;;;;;;5049873;28;19935;-73
2024/02/20 00:23:58;;;;;;;;;;;;;;;;;;5049236;28;20422;-73
2024/02/20 00:26:25;;;;;;;;;;;;;;;;;;5049681;28;20383;-73
2024/02/20 00:28:52;;;;;;;;;;;;;;;;;;5052775;28;20041;-74
2024/02/20 00:31:19;;;;;;;;;;;;;;;;;;5046620;28;20367;-72
2024/02/20 00:33:46;;;;;;;;;;;;;;;;;;5047450;28;19932;-73
2024/02/20 00:36:13;;;;;;;;;;;;;;;;;;5048957;28;20388;-73
2024/02/20 00:38:40;;;;;;;;;;;;;;;;;;5048665;28;19976;-73
2024/02/20 00:41:07;;;;;;;;;;;;;;;;;;5041093;28;20417;-72
2024/02/20 00:43:34;;;;;;;;;;;;;;;;;;5047997;28;19941;-74
2024/02/20 00:46:03;;;;;;;;;;;;;;;;;;5051560;28;19935;-73
2024/02/20 00:48:30;;;;;;;;;;;;;;;;;;5045957;28;19929;-73
2024/02/20 00:50:57;;;;;;;;;;;;;;;;;;5043961;28;19929;-72
2024/02/20 00:53:24;;;;;;;;;;;;;;;;;;5049400;28;19937;-72
2024/02/20 00:55:51;;;;;;;;;;;;;;;;;;5049247;28;19940;-73
2024/02/20 00:58:18;;;;;;;;;;;;;;;;;;5047683;28;19929;-73
2024/02/20 01:00:45;;;;;;;;;;;;;;;;;;5044187;28;20388;-74
2024/02/20 01:03:13;;;;;;;;;;;;;;;;;;5047755;28;20482;-73
2024/02/20 01:05:40;;;;;;;;;;;;;;;;;;5044868;28;19929;-74
2024/02/20 01:08:07;;;;;;;;;;;;;;;;;;5048430;28;19972;-72
2024/02/20 01:10:34;;;;;;;;;;;;;;;;;;5035808;28;19983;-73
2024/02/20 01:13:01;;;;;;;;;;;;;;;;;;5035307;28;20023;-72
2024/02/20 01:15:28;;;;;;;;;;;;;;;;;;5048247;28;20030;-72
2024/02/20 01:17:55;;;;;;;;;;;;;;;;;;5048437;28;20031;-73
2024/02/20 01:20:22;;;;;;;;;;;;;;;;;;5047666;28;19960;-72
2024/02/20 01:22:49;;;;;;;;;;;;;;;;;;5048688;28;20032;-72
2024/02/20 01:25:16;;;;;;;;;;;;;;;;;;5047792;28;19936;-73
2024/02/20 01:27:43;;;;;;;;;;;;;;;;;;5036439;28;19929;-73
2024/02/20 01:30:11;;;;;;;;;;;;;;;;;;5051308;28;20002;-73
2024/02/20 01:32:38;;;;;;;;;;;;;;;;;;5041700;28;19932;-72
2024/02/20 01:35:05;;;;;;;;;;;;;;;;;;5056490;28;20552;-73
2024/02/20 01:37:32;;;;;;;;;;;;;;;;;;5047502;28;20019;-73
2024/02/20 01:39:59;;;;;;;;;;;;;;;;;;5049061;28;19929;-73
2024/02/20 01:42:27;;;;;;;;;;;;;;;;;;5062749;28;19941;-72
2024/02/20 01:44:54;;;;;;;;;;;;;;;;;;5042057;28;19968;-74
2024/02/20 01:47:23;;;;;;;;;;;;;;;;;;5044858;28;20378;-73
2024/02/20 01:49:50;;;;;;;;;;;;;;;;;;5047755;28;19937;-72
2024/02/20 01:52:17;;;;;;;;;;;;;;;;;;5042622;28;19929;-73
2024/02/20 01:54:44;;;;;;;;;;;;;;;;;;5041882;28;19929;-71
2024/02/20 01:57:11;;;;;;;;;;;;;;;;;;5051453;28;20012;-72
2024/02/20 01:59:38;;;;;;;;;;;;;;;;;;5052272;28;19968;-73
2024/02/20 02:02:06;;;;;;;;;;;;;;;;;;5039988;28;20027;-72
2024/02/20 02:04:33;;;;;;;;;;;;;;;;;;5051796;28;19935;-72
2024/02/20 02:07:00;;;;;;;;;;;;;;;;;;5051904;28;19928;-72
2024/02/20 02:09:27;;;;;;;;;;;;;;;;;;5050956;28;20474;-73
2024/02/20 02:11:54;;;;;;;;;;;;;;;;;;5037669;28;19929;-73
2024/02/20 02:14:21;;;;;;;;;;;;;;;;;;5058593;28;20024;-73
2024/02/20 02:16:48;;;;;;;;;;;;;;;;;;5051404;28;19928;-73
2024/02/20 02:19:15;;;;;;;;;;;;;;;;;;5051508;28;19958;-72
2024/02/20 02:21:42;;;;;;;;;;;;;;;;;;5044871;28;19929;-72
2024/02/20 02:24:09;;;;;;;;;;;;;;;;;;5049244;28;20387;-72
2024/02/20 02:26:37;;;;;;;;;;;;;;;;;;5050836;28;19928;-73
2024/02/20 02:29:04;;;;;;;;;;;;;;;;;;5052006;28;19928;-72
2024/02/20 02:31:31;;;;;;;;;;;;;;;;;;5051130;28;20442;-73
2024/02/20 02:33:58;;;;;;;;;;;;;;;;;;5050179;28;19933;-73
2024/02/20 02:36:26;;;;;;;;;;;;;;;;;;5060120;28;19928;-74
2024/02/20 02:38:53;;;;;;;;;;;;;;;;;;5053220;28;19933;-73
2024/02/20 02:41:21;;;;;;;;;;;;;;;;;;5032274;28;20395;-73
2024/02/20 02:43:48;;;;;;;;;;;;;;;;;;5032091;28;19940;-74
2024/02/20 02:46:15;;;;;;;;;;;;;;;;;;5051072;28;20024;-73
2024/02/20 02:48:43;;;;;;;;;;;;;;;;;;5048935;28;20400;-73
2024/02/20 02:51:10;;;;;;;;;;;;;;;;;;5050788;28;20376;-73
2024/02/20 02:53:39;;;;;;;;;;;;;;;;;;5050959;28;19929;-72
2024/02/20 02:56:06;;;;;;;;;;;;;;;;;;5041540;28;19968;-72
2024/02/20 02:58:33;;;;;;;;;;;;;;;;;;5039742;28;20451;-72
2024/02/20 03:01:00;;;;;;;;;;;;;;;;;;5048729;28;19964;-72
2024/02/20 03:03:27;;;;;;;;;;;;;;;;;;5050817;28;20019;-72
2024/02/20 03:05:55;;;;;;;;;;;;;;;;;;5041978;28;19968;-72
2024/02/20 03:08:22;;;;;;;;;;;;;;;;;;5049357;28;19989;-72
2024/02/20 03:10:49;;;;;;;;;;;;;;;;;;5049792;28;19936;-72
2024/02/20 03:13:16;;;;;;;;;;;;;;;;;;5039948;28;19929;-72
2024/02/20 03:15:43;;;;;;;;;;;;;;;;;;5031948;28;19975;-72
2024/02/20 03:18:10;;;;;;;;;;;;;;;;;;5050301;28;20402;-72
2024/02/20 03:20:37;;;;;;;;;;;;;;;;;;5046148;28;19982;-73
2024/02/20 03:23:04;;;;;;;;;;;;;;;;;;5049884;28;19929;-73
2024/02/20 03:25:31;;;;;;;;;;;;;;;;;;5046539;28;20047;-72
2024/02/20 03:27:58;;;;;;;;;;;;;;;;;;5050027;28;20465;-72
2024/02/20 03:30:25;;;;;;;;;;;;;;;;;;5044152;28;19935;-72
2024/02/20 03:32:52;;;;;;;;;;;;;;;;;;5049466;28;19928;-72
2024/02/20 03:35:21;;;;;;;;;;;;;;;;;;5050014;28;19929;-73
2024/02/20 03:37:49;;;;;;;;;;;;;;;;;;5049450;28;20097;-72
2024/02/20 03:40:16;;;;;;;;;;;;;;;;;;5053185;28;19932;-72
2024/02/20 03:42:43;;;;;;;;;;;;;;;;;;5042048;28;19929;-73
2024/02/20 03:45:10;;;;;;;;;;;;;;;;;;5050848;28;19929;-73
2024/02/20 03:47:37;;;;;;;;;;;;;;;;;;5050227;28;19935;-72
2024/02/20 03:50:05;;;;;;;;;;;;;;;;;;5049837;28;20407;-72
2024/02/20 03:52:32;;;;;;;;;;;;;;;;;;5050718;28;20024;-71
2024/02/20 03:54:59;;;;;;;;;;;;;;;;;;5049988;28;19936;-72
2024/02/20 03:57:26;;;;;;;;;;;;;;;;;;5048402;28;19928;-72
2024/02/20 03:59:55;;;;;;;;;;;;;;;;;;5046949;28;19936;-72
2024/02/20 04:02:22;;;;;;;;;;;;;;;;;;5042013;28;19966;-73
2024/02/20 04:04:49;;;;;;;;;;;;;;;;;;5049950;28;19972;-72
2024/02/20 04:07:17;;;;;;;;;;;;;;;;;;5050657;28;19998;-74
2024/02/20 04:09:44;;;;;;;;;;;;;;;;;;5049664;28;19929;-74
2024/02/20 04:12:11;;;;;;;;;;;;;;;;;;5046451;28;19998;-73
2024/02/20 04:14:38;;;;;;;;;;;;;;;;;;5050806;28;19948;-73
2024/02/20 04:17:05;;;;;;;;;;;;;;;;;;5066241;28;19978;-73
2024/02/20 04:19:32;;;;;;;;;;;;;;;;;;5058457;28;19944;-73
2024/02/20 04:21:59;;;;;;;;;;;;;;;;;;5049289;28;19941;-73
2024/02/20 04:24:26;;;;;;;;;;;;;;;;;;5049567;28;19928;-73
2024/02/20 04:26:56;;;;;;;;;;;;;;;;;;5049547;28;20276;-72
2024/02/20 04:29:23;;;;;;;;;;;;;;;;;;5034879;28;19929;-73
2024/02/20 04:31:50;;;;;;;;;;;;;;;;;;5048674;28;20451;-73
2024/02/20 04:34:17;;;;;;;;;;;;;;;;;;5046450;28;19932;-73
2024/02/20 04:36:44;;;;;;;;;;;;;;;;;;5049448;28;19990;-73
2024/02/20 04:39:11;;;;;;;;;;;;;;;;;;5038612;28;19929;-75
2024/02/20 04:41:38;;;;;;;;;;;;;;;;;;5048613;28;20416;-74
2024/02/20 04:44:05;;;;;;;;;;;;;;;;;;5049057;28;20015;-73
2024/02/20 04:46:32;;;;;;;;;;;;;;;;;;5049247;28;19928;-73
2024/02/20 04:48:59;;;;;;;;;;;;;;;;;;5048278;28;19976;-75
2024/02/20 04:51:27;;;;;;;;;;;;;;;;;;5050291;28;20024;-73
2024/02/20 04:53:54;;;;;;;;;;;;;;;;;;5043883;28;19929;-73
2024/02/20 04:56:21;;;;;;;;;;;;;;;;;;5039159;28;19960;-73
2024/02/20 04:58:48;;;;;;;;;;;;;;;;;;5048768;28;19998;-73
2024/02/20 05:01:15;;;;;;;;;;;;;;;;;;5047406;28;20024;-73
2024/02/20 05:03:42;;;;;;;;;;;;;;;;;;5048846;28;20015;-72
2024/02/20 05:06:09;;;;;;;;;;;;;;;;;;5049018;28;20031;-72
2024/02/20 05:08:36;;;;;;;;;;;;;;;;;;5048775;28;20015;-73
2024/02/20 05:11:03;;;;;;;;;;;;;;;;;;5047638;28;20400;-73
2024/02/20 05:13:30;;;;;;;;;;;;;;;;;;5042221;28;20019;-73
2024/02/20 05:15:57;;;;;;;;;;;;;;;;;;5049611;28;19932;-72
2024/02/20 05:18:24;;;;;;;;;;;;;;;;;;5049983;28;19929;-72
2024/02/20 05:20:51;;;;;;;;;;;;;;;;;;5050665;28;19929;-72
2024/02/20 05:23:18;;;;;;;;;;;;;;;;;;5038889;28;20027;-73
2024/02/20 05:25:45;;;;;;;;;;;;;;;;;;5038368;28;20035;-73
2024/02/20 05:28:13;;;;;;;;;;;;;;;;;;5041681;28;19982;-73
2024/02/20 05:30:40;;;;;;;;;;;;;;;;;;5057597;28;19933;-74
2024/02/20 05:33:07;;;;;;;;;;;;;;;;;;5048029;28;20293;-74
2024/02/20 05:35:34;;;;;;;;;;;;;;;;;;5048030;28;20370;-74
2024/02/20 05:38:02;;;;;;;;;;;;;;;;;;5048720;28;19930;-74
2024/02/20 05:40:29;;;;;;;;;;;;;;;;;;5047937;28;19928;-73
2024/02/20 05:42:56;;;;;;;;;;;;;;;;;;5047703;28;19929;-73
2024/02/20 05:45:23;;;;;;;;;;;;;;;;;;5047336;28;19968;-73
2024/02/20 05:47:50;;;;;;;;;;;;;;;;;;5047618;28;20053;-73
2024/02/20 05:50:17;;;;;;;;;;;;;;;;;;5047816;28;19979;-75
2024/02/20 05:52:44;;;;;;;;;;;;;;;;;;5047509;28;19928;-73
2024/02/20 05:55:11;;;;;;;;;;;;;;;;;;5043811;28;19955;-73
2024/02/20 05:57:38;;;;;;;;;;;;;;;;;;5042157;28;19964;-70
2024/02/20 06:00:05;;;;;;;;;;;;;;;;;;5046476;28;20055;-71
2024/02/20 06:02:32;;;;;;;;;;;;;;;;;;5047195;28;20022;-73
2024/02/20 06:05:00;;;;;;;;;;;;;;;;;;5047104;28;20028;-72
2024/02/20 06:07:27;;;;;;;;;;;;;;;;;;5047211;28;20187;-72
2024/02/20 06:09:54;;;;;;;;;;;;;;;;;;5042339;28;19933;-71
2024/02/20 06:12:21;;;;;;;;;;;;;;;;;;5035348;28;20677;-72
2024/02/20 06:14:48;;;;;;;;;;;;;;;;;;5044649;28;19951;-72
2024/02/20 06:17:15;;;;;;;;;;;;;;;;;;5045846;28;19973;-72
2024/02/20 06:19:42;;;;;;;;;;;;;;;;;;5047775;28;19976;-73
2024/02/20 06:22:09;;;;;;;;;;;;;;;;;;5043686;28;19939;-73
2024/02/20 06:24:36;;;;;;;;;;;;;;;;;;5038950;28;19951;-72
2024/02/20 06:27:06;;;;;;;;;;;;;;;;;;5030245;28;20011;-72
2024/02/20 06:29:34;;;;;;;;;;;;;;;;;;5053775;28;20404;-72
2024/02/20 06:32:01;;;;;;;;;;;;;;;;;;5046528;28;19936;-71
2024/02/20 06:34:28;;;;;;;;;;;;;;;;;;5045906;28;20019;-71
2024/02/20 06:36:55;;;;;;;;;;;;;;;;;;5041056;28;20016;-72
2024/02/20 06:39:22;;;;;;;;;;;;;;;;;;5037206;28;20011;-72
2024/02/20 06:41:49;;;;;;;;;;;;;;;;;;5049173;28;19964;-72
2024/02/20 06:44:16;;;;;;;;;;;;;;;;;;5045231;28;19999;-72
2024/02/20 06:46:43;;;;;;;;;;;;;;;;;;5045866;28;19929;-72
2024/02/20 06:49:11;;;;;;;;;;;;;;;;;;5054258;28;20024;-73
2024/02/20 06:51:38;;;;;;;;;;;;;;;;;;5051370;28;19972;-74
2024/02/20 06:54:06;;;;;;;;;;;;;;;;;;5048388;28;19933;-73
2024/02/20 06:56:33;;;;;;;;;;;;;;;;;;5037361;28;19936;-73
2024/02/20 06:59:00;;;;;;;;;;;;;;;;;;5050568;28;20012;-72
2024/02/20 07:01:28;;;;;;;;;;;;;;;;;;5044854;28;19938;-73
2024/02/20 07:03:55;;;;;;;;;;;;;;;;;;5052234;28;19929;-74
2024/02/20 07:06:23;;;;;;;;;;;;;;;;;;5050297;28;19983;-73
2024/02/20 07:08:50;;;;;;;;;;;;;;;;;;5053477;28;19933;-73
2024/02/20 07:11:17;;;;;;;;;;;;;;;;;;5047823;28;20788;-73
2024/02/20 07:13:44;;;;;;;;;;;;;;;;;;5031117;28;19933;-73
2024/02/20 07:16:11;;;;;;;;;;;;;;;;;;5037689;28;20043;-73
2024/02/20 07:18:38;;;;;;;;;;;;;;;;;;5050618;28;20025;-79
2024/02/20 07:21:05;;;;;;;;;;;;;;;;;;5049770;28;19932;-77
2024/02/20 07:23:32;;;;;;;;;;;;;;;;;;5050394;28;20347;-74
2024/02/20 07:25:59;;;;;;;;;;;;;;;;;;5049217;28;19937;-72
2024/02/20 07:28:26;;;;;;;;;;;;;;;;;;5053022;28;20017;-74
2024/02/20 07:30:53;;;;;;;;;;;;;;;;;;5050136;28;20391;-73
2024/02/20 07:33:20;;;;;;;;;;;;;;;;;;5043823;28;20043;-74
2024/02/20 07:35:48;;;;;;;;;;;;;;;;;;5039098;28;20002;-73
2024/02/20 07:38:15;;;;;;;;;;;;;;;;;;5040687;28;20260;-75
2024/02/20 07:40:42;;;;;;;;;;;;;;;;;;5039405;28;19929;-76
2024/02/20 07:43:09;;;;;;;;;;;;;;;;;;5047198;28;19947;-75
2024/02/20 07:45:36;;;;;;;;;;;;;;;;;;5034211;28;20011;-73
2024/02/20 07:48:03;;;;;;;;;;;;;;;;;;5043181;28;19929;-73
2024/02/20 07:50:30;;;;;;;;;;;;;;;;;;5042996;28;19935;-74
2024/02/20 07:52:57;;;;;;;;;;;;;;;;;;5037359;28;19986;-74
2024/02/20 07:55:24;;;;;;;;;;;;;;;;;;5040413;28;19929;-74
2024/02/20 07:57:52;;;;;;;;;;;;;;;;;;5039420;28;20502;-75
2024/02/20 08:00:19;;;;;;;;;;;;;;;;;;5029503;28;19936;-75
2024/02/20 08:02:47;;;;;;;;;;;;;;;;;;5038567;28;19932;-73
2024/02/20 08:05:14;;;;;;;;;;;;;;;;;;5043802;28;19986;-78
2024/02/20 08:07:41;;;;;;;;;;;;;;;;;;5038249;28;19940;-80
2024/02/20 08:10:11;;;;;;;;;;;;;;;;;;5042158;28;19929;-77
2024/02/20 08:12:38;;;;;;;;;;;;;;;;;;5046815;28;20056;-77
2024/02/20 08:15:07;;;;;;;;;;;;;;;;;;5049021;28;19933;-78
2024/02/20 08:17:34;;;;;;;;;;;;;;;;;;5047381;28;20020;-75
2024/02/20 08:20:01;;;;;;;;;;;;;;;;;;5041985;28;19940;-75
2024/02/20 08:22:28;;;;;;;;;;;;;;;;;;5046557;28;20035;-76
2024/02/20 08:24:56;;;;;;;;;;;;;;;;;;5042211;28;19935;-76
2024/02/20 08:27:23;;;;;;;;;;;;;;;;;;5037856;28;19929;-78
2024/02/20 08:29:50;;;;;;;;;;;;;;;;;;5039947;28;19964;-76
2024/02/20 08:32:17;;;;;;;;;;;;;;;;;;5039234;28;19937;-75
2024/02/20 08:34:44;;;;;;;;;;;;;;;;;;5042508;28;19932;-73
2024/02/20 08:37:11;;;;;;;;;;;;;;;;;;5040661;28;19943;-75
2024/02/20 08:39:38;;;;;;;;;;;;;;;;;;5040863;28;19983;-77
2024/02/20 08:42:05;;;;;;;;;;;;;;;;;;5032061;28;20668;-76
2024/02/20 08:44:32;;;;;;;;;;;;;;;;;;5039357;28;19933;-77
2024/02/20 08:46:59;;;;;;;;;;;;;;;;;;5043727;28;19983;-75
2024/02/20 08:49:26;;;;;;;;;;;;;;;;;;5036589;28;20046;-75
2024/02/20 08:51:53;;;;;;;;;;;;;;;;;;5039038;28;20011;-74
2024/02/20 08:54:20;;;;;;;;;;;;;;;;;;5031393;28;20008;-73
2024/02/20 08:56:47;;;;;;;;;;;;;;;;;;5040301;28;20341;-74
2024/02/20 08:59:15;;;;;;;;;;;;;;;;;;5038519;28;19928;-76
2024/02/20 09:01:42;;;;;;;;;;;;;;;;;;5040374;28;19932;-74
2024/02/20 09:04:11;;;;;;;;;;;;;;;;;;5043359;28;20034;-74
2024/02/20 09:06:38;;;;;;;;;;;;;;;;;;5034792;28;19932;-75
2024/02/20 09:09:05;;;;;;;;;;;;;;;;;;5042193;28;19933;-74
2024/02/20 09:11:32;;;;;;;;;;;;;;;;;;5034478;28;19964;-75
2024/02/20 09:13:59;;;;;;;;;;;;;;;;;;5041305;28;20454;-75
2024/02/20 09:16:26;;;;;;;;;;;;;;;;;;5042601;28;19933;-76
2024/02/20 09:18:53;;;;;;;;;;;;;;;;;;5038995;28;19932;-75
2024/02/20 09:21:20;;;;;;;;;;;;;;;;;;5038942;28;19972;-75
2024/02/20 09:23:48;;;;;;;;;;;;;;;;;;5032575;28;19925;-75
2024/02/20 09:26:15;;;;;;;;;;;;;;;;;;5033426;28;19929;-74
2024/02/20 09:28:42;;;;;;;;;;;;;;;;;;5030872;28;20027;-74
2024/02/20 09:31:09;;;;;;;;;;;;;;;;;;5033407;28;19978;-72
2024/02/20 09:33:36;;;;;;;;;;;;;;;;;;5043819;28;20381;-71
2024/02/20 09:36:03;;;;;;;;;;;;;;;;;;5034735;28;19925;-73
2024/02/20 09:38:30;;;;;;;;;;;;;;;;;;5038555;28;19952;-73
2024/02/20 09:40:57;;;;;;;;;;;;;;;;;;5031877;28;19991;-72
2024/02/20 09:43:25;;;;;;;;;;;;;;;;;;5030156;28;19976;-73
2024/02/20 09:45:52;;;;;;;;;;;;;;;;;;5033630;28;19935;-73
2024/02/20 09:48:19;;;;;;;;;;;;;;;;;;5032832;28;19932;-70
2024/02/20 09:50:46;;;;;;;;;;;;;;;;;;5030473;28;19933;-70
2024/02/20 09:53:14;;;;;;;;;;;;;;;;;;5034335;28;19933;-71
2024/02/20 09:55:41;;;;;;;;;;;;;;;;;;5029679;28;19933;-72
2024/02/20 09:58:08;;;;;;;;;;;;;;;;;;5028372;28;20435;-70
2024/02/20 10:00:35;;;;;;;;;;;;;;;;;;5034362;28;19963;-70
2024/02/20 10:03:03;;;;;;;;;;;;;;;;;;5028856;28;20482;-70
2024/02/20 10:05:30;;;;;;;;;;;;;;;;;;5028745;28;19929;-70
2024/02/20 10:07:57;;;;;;;;;;;;;;;;;;5032176;28;19929;-75
2024/02/20 10:10:24;;;;;;;;;;;;;;;;;;5038441;28;19929;-72
2024/02/20 10:12:51;;;;;;;;;;;;;;;;;;5031816;28;20730;-73
2024/02/20 10:15:18;;;;;;;;;;;;;;;;;;5041528;28;20061;-73
2024/02/20 10:17:45;;;;;;;;;;;;;;;;;;5045513;28;19929;-73
2024/02/20 10:20:12;;;;;;;;;;;;;;;;;;5048016;28;20018;-73
2024/02/20 10:22:39;;;;;;;;;;;;;;;;;;5052134;28;19935;-73
2024/02/20 10:25:07;;;;;;;;;;;;;;;;;;5053359;28;19933;-73
2024/02/20 10:27:34;;;;;;;;;;;;;;;;;;5041716;28;19925;-72
2024/02/20 10:30:03;;;;;;;;;;;;;;;;;;5052334;28;19955;-75
2024/02/20 10:32:33;;;;;;;;;;;;;;;;;;5046078;28;19928;-75
2024/02/20 10:35:00;;;;;;;;;;;;;;;;;;5039980;28;19933;-74
2024/02/20 10:37:28;;;;;;;;;;;;;;;;;;5050149;28;20333;-73
2024/02/20 10:39:55;;;;;;;;;;;;;;;;;;5045006;28;20007;-72
2024/02/20 10:42:22;;;;;;;;;;;;;;;;;;5046170;28;20561;-73
2024/02/20 10:44:49;;;;;;;;;;;;;;;;;;5045473;28;19929;-72
2024/02/20 10:47:16;;;;;;;;;;;;;;;;;;5046787;28;20383;-73
2024/02/20 10:49:43;;;;;;;;;;;;;;;;;;5049517;28;19933;-75
2024/02/20 10:52:10;;;;;;;;;;;;;;;;;;5043822;28;19937;-74
2024/02/20 10:54:37;;;;;;;;;;;;;;;;;;5047126;28;19963;-74
2024/02/20 10:57:04;;;;;;;;;;;;;;;;;;5045149;28;20046;-75
2024/02/20 10:59:31;;;;;;;;;;;;;;;;;;5046317;28;19951;-74
2024/02/20 11:01:58;;;;;;;;;;;;;;;;;;5050960;28;19932;-73
2024/02/20 11:04:25;;;;;;;;;;;;;;;;;;5046553;28;19935;-74
2024/02/20 11:06:52;;;;;;;;;;;;;;;;;;5050600;28;20031;-73
2024/02/20 11:09:21;;;;;;;;;;;;;;;;;;5045866;28;20019;-75
2024/02/20 11:11:48;;;;;;;;;;;;;;;;;;5050154;28;20463;-74
2024/02/20 11:14:15;;;;;;;;;;;;;;;;;;5046713;28;20032;-72
2024/02/20 11:16:43;;;;;;;;;;;;;;;;;;5043881;28;19935;-74
2024/02/20 11:19:10;;;;;;;;;;;;;;;;;;5034471;28;20049;-74
2024/02/20 11:21:37;;;;;;;;;;;;;;;;;;5045688;28;20027;-72
2024/02/20 11:24:04;;;;;;;;;;;;;;;;;;5039301;28;19939;-73
2024/02/20 11:26:31;;;;;;;;;;;;;;;;;;5041443;28;20017;-72
2024/02/20 11:28:58;;;;;;;;;;;;;;;;;;5038810;28;19936;-72
2024/02/20 11:31:25;;;;;;;;;;;;;;;;;;5048852;28;19983;-72
2024/02/20 11:33:53;;;;;;;;;;;;;;;;;;5039411;28;19940;-72
2024/02/20 11:36:20;;;;;;;;;;;;;;;;;;5040892;28;19975;-75
2024/02/20 11:38:47;;;;;;;;;;;;;;;;;;5041760;28;19941;-73
2024/02/20 11:41:14;;;;;;;;;;;;;;;;;;5042488;28;19929;-74
2024/02/20 11:43:41;;;;;;;;;;;;;;;;;;5045248;28;20018;-70
2024/02/20 11:46:08;;;;;;;;;;;;;;;;;;5042195;28;19947;-69
2024/02/20 11:48:37;;;;;;;;;;;;;;;;;;5035669;28;20364;-72
2024/02/20 11:51:05;;;;;;;;;;;;;;;;;;5037355;28;19944;-72
2024/02/20 11:53:32;;;;;;;;;;;;;;;;;;5042511;28;19929;-73
2024/02/20 11:56:00;;;;;;;;;;;;;;;;;;5040059;28;19968;-73
2024/02/20 11:58:27;;;;;;;;;;;;;;;;;;5040981;28;19936;-72
2024/02/20 12:01:00;;;;;;;;;;;;;;;;;;5039329;28;20016;-73
2024/02/20 12:03:27;;;;;;;;;;;;;;;;;;5035813;28;19928;-72
2024/02/20 12:05:55;;;;;;;;;;;;;;;;;;5042101;28;19929;-72
2024/02/20 12:08:22;;;;;;;;;;;;;;;;;;5039578;28;19964;-75
2024/02/20 12:10:49;;;;;;;;;;;;;;;;;;5040074;28;20023;-73
2024/02/20 12:13:16;;;;;;;;;;;;;;;;;;5040034;28;20362;-72
2024/02/20 12:15:44;;;;;;;;;;;;;;;;;;5039801;28;19929;-72
2024/02/20 12:18:11;;;;;;;;;;;;;;;;;;5037126;28;19998;-68
2024/02/20 12:20:38;;;;;;;;;;;;;;;;;;5037177;28;20364;-72
2024/02/20 12:23:05;;;;;;;;;;;;;;;;;;5036046;28;20105;-73
2024/02/20 12:25:32;;;;;;;;;;;;;;;;;;5036877;28;19968;-71
2024/02/20 12:27:59;;;;;;;;;;;;;;;;;;5037449;28;19933;-71
2024/02/20 12:30:26;;;;;;;;;;;;;;;;;;5041332;28;20047;-73
2024/02/20 12:32:53;;;;;;;;;;;;;;;;;;5035440;28;20014;-72
2024/02/20 12:35:20;;;;;;;;;;;;;;;;;;5037830;28;20012;-72
2024/02/20 12:37:47;;;;;;;;;;;;;;;;;;5050480;28;19976;-71
2024/02/20 12:40:18;;;;;;;;;;;;;;;;;;5045882;28;19933;-71
2024/02/20 12:42:45;;;;;;;;;;;;;;;;;;5043762;28;19974;-73
2024/02/20 12:45:12;;;;;;;;;;;;;;;;;;5044901;28;20513;-73
2024/02/20 12:47:40;;;;;;;;;;;;;;;;;;5030522;28;19975;-72
2024/02/20 12:50:07;;;;;;;;;;;;;;;;;;5043469;28;19929;-72
2024/02/20 12:52:34;;;;;;;;;;;;;;;;;;5032687;28;19999;-71
2024/02/20 12:55:02;;;;;;;;;;;;;;;;;;5048484;28;19932;-72
2024/02/20 12:57:29;;;;;;;;;;;;;;;;;;5049365;28;19936;-72
2024/02/20 12:59:56;;;;;;;;;;;;;;;;;;5053273;28;20039;-71
2024/02/20 13:02:23;;;;;;;;;;;;;;;;;;5034951;28;21814;-70
2024/02/20 13:04:50;;;;;;;;;;;;;;;;;;5042876;28;20456;-73
2024/02/20 13:07:17;;;;;;;;;;;;;;;;;;5050923;28;19929;-71
2024/02/20 13:09:45;;;;;;;;;;;;;;;;;;5047668;28;19933;-70
2024/02/20 13:12:15;;;;;;;;;;;;;;;;;;5049343;28;20342;-70
2024/02/20 13:14:47;;;;;;;;;;;;;;;;;;5045338;28;19964;-72
2024/02/20 13:17:14;;;;;;;;;;;;;;;;;;5049412;28;20023;-69
2024/02/20 13:19:41;;;;;;;;;;;;;;;;;;5041087;28;19929;-71
2024/02/20 13:22:10;;;;;;;;;;;;;;;;;;5049995;28;20569;-71
2024/02/20 13:24:38;;;;;;;;;;;;;;;;;;5045992;28;19929;-72
2024/02/20 13:27:05;;;;;;;;;;;;;;;;;;5049650;28;20399;-72
2024/02/20 13:29:32;;;;;;;;;;;;;;;;;;5042173;28;20416;-71
2024/02/20 13:31:59;;;;;;;;;;;;;;;;;;5049223;28;20364;-71
2024/02/20 13:34:26;;;;;;;;;;;;;;;;;;5048114;28;20020;-72
2024/02/20 13:36:53;;;;;;;;;;;;;;;;;;5042690;28;19935;-72
2024/02/20 13:39:20;;;;;;;;;;;;;;;;;;5046679;28;20414;-72
2024/02/20 13:41:48;;;;;;;;;;;;;;;;;;5041314;28;19929;-72
2024/02/20 13:44:16;;;;;;;;;;;;;;;;;;5041329;28;19968;-72
2024/02/20 13:46:43;;;;;;;;;;;;;;;;;;5048347;28;20006;-72
2024/02/20 13:49:10;;;;;;;;;;;;;;;;;;5046934;28;19924;-76
2024/02/20 13:51:39;;;;;;;;;;;;;;;;;;5030258;28;19929;-74
2024/02/20 13:54:07;;;;;;;;;;;;;;;;;;5050182;28;19933;-73
2024/02/20 13:56:34;;;;;;;;;;;;;;;;;;5044416;28;19979;-74
2024/02/20 13:59:01;;;;;;;;;;;;;;;;;;5050902;28;19948;-74
2024/02/20 14:01:28;;;;;;;;;;;;;;;;;;5051767;28;19929;-75
2024/02/20 14:03:55;;;;;;;;;;;;;;;;;;5048768;28;20123;-75
2024/02/20 14:06:22;;;;;;;;;;;;;;;;;;5050220;28;20066;-75
2024/02/20 14:08:49;;;;;;;;;;;;;;;;;;5051869;28;20006;-73
2024/02/20 14:11:18;;;;;;;;;;;;;;;;;;5052436;28;19999;-74
2024/02/20 14:13:45;;;;;;;;;;;;;;;;;;5051205;28;19928;-73
2024/02/20 14:16:12;;;;;;;;;;;;;;;;;;5046859;28;19929;-72
2024/02/20 14:18:39;;;;;;;;;;;;;;;;;;5049035;28;19940;-77
2024/02/20 14:21:06;;;;;;;;;;;;;;;;;;5051806;28;20182;-75
2024/02/20 14:23:33;;;;;;;;;;;;;;;;;;5050324;28;19929;-72
2024/02/20 14:26:00;;;;;;;;;;;;;;;;;;5046994;28;20063;-72
2024/02/20 14:28:27;;;;;;;;;;;;;;;;;;5043473;28;20555;-71
2024/02/20 14:30:54;;;;;;;;;;;;;;;;;;5045842;28;22628;-72
2024/02/20 14:33:21;;;;;;;;;;;;;;;;;;5039592;28;20024;-71
2024/02/20 14:35:48;;;;;;;;;;;;;;;;;;5050379;28;20019;-71
2024/02/20 14:38:15;;;;;;;;;;;;;;;;;;5039879;28;20058;-73
2024/02/20 14:40:43;;;;;;;;;;;;;;;;;;5050097;28;20155;-71
2024/02/20 14:43:10;;;;;;;;;;;;;;;;;;5050278;28;20380;-70
2024/02/20 14:45:37;;;;;;;;;;;;;;;;;;5050469;28;20015;-70
2024/02/20 14:48:06;;;;;;;;;;;;;;;;;;5049233;28;20466;-71
2024/02/20 14:50:33;;;;;;;;;;;;;;;;;;5050589;28;19929;-71
2024/02/20 14:53:02;;;;;;;;;;;;;;;;;;5051050;28;20384;-70
2024/02/20 14:55:29;;;;;;;;;;;;;;;;;;5041274;28;19929;-71
2024/02/20 14:57:57;;;;;;;;;;;;;;;;;;5049735;28;19950;-72
2024/02/20 15:00:24;;;;;;;;;;;;;;;;;;5050656;28;20303;-71
2024/02/20 15:02:51;;;;;;;;;;;;;;;;;;5044031;28;20051;-71
2024/02/20 15:05:18;;;;;;;;;;;;;;;;;;5041821;28;20637;-70
2024/02/20 15:07:45;;;;;;;;;;;;;;;;;;5043435;28;19940;-72
2024/02/20 15:10:12;;;;;;;;;;;;;;;;;;5048777;28;19932;-71
2024/02/20 15:12:39;;;;;;;;;;;;;;;;;;5049803;28;19951;-70
2024/02/20 15:15:06;;;;;;;;;;;;;;;;;;5049283;28;20367;-73
2024/02/20 15:17:33;;;;;;;;;;;;;;;;;;5047566;28;19951;-70
2024/02/20 15:20:03;;;;;;;;;;;;;;;;;;5046757;28;19964;-73
2024/02/20 15:22:30;;;;;;;;;;;;;;;;;;5047677;28;19959;-72
2024/02/20 15:24:59;;;;;;;;;;;;;;;;;;5044517;28;19932;-73
2024/02/20 15:27:28;;;;;;;;;;;;;;;;;;5046917;28;20126;-72
2024/02/20 15:29:55;;;;;;;;;;;;;;;;;;5046419;28;19928;-70
2024/02/20 15:32:22;;;;;;;;;;;;;;;;;;5043396;28;19928;-70
2024/02/20 15:34:51;;;;;;;;;;;;;;;;;;5038283;28;19929;-71
2024/02/20 15:37:18;;;;;;;;;;;;;;;;;;5040532;28;20075;-72
2024/02/20 15:39:45;;;;;;;;;;;;;;;;;;5041004;28;20027;-72
2024/02/20 15:42:12;;;;;;;;;;;;;;;;;;5043698;28;19929;-71
2024/02/20 15:44:39;;;;;;;;;;;;;;;;;;5048396;28;20019;-73
2024/02/20 15:47:07;;;;;;;;;;;;;;;;;;5043556;28;20404;-73
2024/02/20 15:49:34;;;;;;;;;;;;;;;;;;5044261;28;20028;-73
2024/02/20 15:52:01;;;;;;;;;;;;;;;;;;5042856;28;20292;-72
2024/02/20 15:54:28;;;;;;;;;;;;;;;;;;5045045;28;19935;-72
2024/02/20 15:56:55;;;;;;;;;;;;;;;;;;5045885;28;19929;-71
2024/02/20 15:59:22;;;;;;;;;;;;;;;;;;5036289;28;20023;-72
2024/02/20 16:01:49;;;;;;;;;;;;;;;;;;5042245;28;19979;-72
2024/02/20 16:04:16;;;;;;;;;;;;;;;;;;5039522;28;19929;-73
2024/02/20 16:06:43;;;;;;;;;;;;;;;;;;5038911;28;20017;-70
2024/02/20 16:09:12;;;;;;;;;;;;;;;;;;5040079;28;20344;-71
2024/02/20 16:11:39;;;;;;;;;;;;;;;;;;5036136;28;20027;-70
2024/02/20 16:14:06;;;;;;;;;;;;;;;;;;5036787;28;19928;-71
2024/02/20 16:16:33;;;;;;;;;;;;;;;;;;5040292;28;20393;-70
2024/02/20 16:19:00;;;;;;;;;;;;;;;;;;5038213;28;20015;-70
2024/02/20 16:21:27;;;;;;;;;;;;;;;;;;5042527;28;19932;-73
2024/02/20 16:23:54;;;;;;;;;;;;;;;;;;5037244;28;19929;-71
2024/02/20 16:26:21;;;;;;;;;;;;;;;;;;5038848;28;20332;-72
2024/02/20 16:28:49;;;;;;;;;;;;;;;;;;5038336;28;20399;-71
2024/02/20 16:31:16;;;;;;;;;;;;;;;;;;5034641;28;19952;-72
2024/02/20 16:33:43;;;;;;;;;;;;;;;;;;5033228;28;20486;-72
2024/02/20 16:36:10;;;;;;;;;;;;;;;;;;5046682;28;20441;-71
2024/02/20 16:38:37;;;;;;;;;;;;;;;;;;5034547;28;19933;-72
2024/02/20 16:41:04;;;;;;;;;;;;;;;;;;5049477;28;19939;-73
2024/02/20 16:43:35;;;;;;;;;;;;;;;;;;5041028;28;19979;-73
2024/02/20 16:46:02;;;;;;;;;;;;;;;;;;5030037;28;19936;-72